Time;durP1;ratioP1;P1;durP2;ratioP2;P2;SDS_P1;SDS_P2;PMS_P1;PMS_P2;Temp;Humidity;BMP_temperature;BMP_pressure;BME280_temperature;BME280_humidity;BME280_pressure;Samples;Min_cycle;Max_cycle;Signal;HPM_P1;HPM_P2
2022/10/02 00:02:31;;;;;;;16.60;3.15;;;12.20;99.90;;;;;;5054080;28;20041;-32
2022/10/02 00:05:09;;;;;;;14.52;2.35;;;11.00;99.90;;;;;;5054902;28;20049;-32
2022/10/02 00:07:56;;;;;;;15.93;2.72;;;12.00;99.90;;;;;;5055424;28;20056;-31
2022/10/02 00:10:30;;;;;;;13.00;2.30;;;11.90;99.90;;;;;;5037509;28;20049;-31
2022/10/02 00:13:00;;;;;;;19.75;3.40;;;9.80;99.90;;;;;;5055565;28;20044;-31
2022/10/02 00:15:29;;;;;;;15.43;2.97;;;11.30;99.90;;;;;;5037360;28;20453;-31
2022/10/02 00:18:03;;;;;;;13.57;3.35;;;11.40;99.90;;;;;;5054612;28;20045;-31
2022/10/02 00:20:42;;;;;;;12.85;3.05;;;10.50;99.90;;;;;;5055448;28;20086;-31
2022/10/02 00:23:25;;;;;;;10.93;3.58;;;10.30;99.90;;;;;;5053318;28;20041;-31
2022/10/02 00:26:06;;;;;;;18.75;3.55;;;11.60;99.90;;;;;;5055093;28;20045;-31
2022/10/02 00:28:50;;;;;;;19.92;4.32;;;11.90;99.90;;;;;;5055003;28;20099;-31
2022/10/02 00:31:34;;;;;;;;;;;11.70;99.90;;;;;;5055425;28;20048;-30
2022/10/02 00:34:07;;;;;;;13.43;3.28;;;11.60;99.90;;;;;;5053406;28;20290;-31
2022/10/02 00:36:38;;;;;;;;;;;11.20;99.90;;;;;;5036887;28;20053;-31
2022/10/02 00:39:29;;;;;;;17.40;3.92;;;10.50;99.90;;;;;;5055071;28;19963;-31
2022/10/02 00:42:15;;;;;;;17.25;4.13;;;9.80;99.90;;;;;;5054147;28;20048;-31
2022/10/02 00:44:54;;;;;;;13.77;4.53;;;9.70;99.90;;;;;;5054030;28;20091;-31
2022/10/02 00:47:58;;;;;;;22.70;4.68;;;9.50;99.90;;;;;;5054601;28;20403;-31
2022/10/02 00:50:36;;;;;;;19.25;4.22;;;9.60;99.90;;;;;;5054071;28;20056;-31
2022/10/02 00:53:14;;;;;;;16.58;4.72;;;10.90;99.90;;;;;;5053940;28;20040;-30
2022/10/02 00:56:02;;;;;;;23.23;5.22;;;9.40;99.90;;;;;;5036432;28;20041;-30
2022/10/02 00:58:44;;;;;;;18.27;4.75;;;9.40;99.90;;;;;;5054267;28;20131;-31
2022/10/02 01:01:15;;;;;;;20.95;5.60;;;11.00;99.90;;;;;;5054487;28;20056;-30
2022/10/02 01:03:45;;;;;;;17.15;5.75;;;9.90;99.90;;;;;;5052324;28;20041;-30
2022/10/02 01:06:11;;;;;;;21.88;5.82;;;9.40;99.90;;;;;;5054071;28;20045;-30
2022/10/02 01:08:37;;;;;;;20.30;5.53;;;10.80;99.90;;;;;;5053717;28;20059;-31
2022/10/02 01:11:05;;;;;;;24.23;5.80;;;10.80;99.90;;;;;;5053685;28;20479;-30
2022/10/02 01:13:31;;;;;;;23.80;6.70;;;9.30;99.90;;;;;;5053556;28;20082;-30
2022/10/02 01:16:01;;;;;;;24.52;7.07;;;9.10;99.90;;;;;;5052470;28;20048;-30
2022/10/02 01:18:29;;;;;;;22.38;6.45;;;9.90;99.90;;;;;;5053674;28;20057;-30
2022/10/02 01:21:03;;;;;;;18.95;6.53;;;9.80;99.90;;;;;;5052909;28;20107;-30
2022/10/02 01:23:43;;;;;;;27.65;6.57;;;9.40;99.90;;;;;;5054109;28;20076;-31
2022/10/02 01:26:09;;;;;;;21.13;6.22;;;10.70;99.90;;;;;;5053606;28;20132;-31
2022/10/02 01:28:35;;;;;;;22.20;7.32;;;10.60;99.90;;;;;;5053545;28;20126;-31
2022/10/02 01:31:09;;;;;;;24.05;6.93;;;9.30;99.90;;;;;;5052821;28;20041;-31
2022/10/02 01:33:37;;;;;;;17.80;5.60;;;9.20;99.90;;;;;;5053595;28;20126;-31
2022/10/02 01:36:03;;;;;;;26.10;6.93;;;10.30;99.90;;;;;;5052258;28;20052;-30
2022/10/02 01:38:30;;;;;;;21.08;6.88;;;10.60;99.90;;;;;;5052326;28;20482;-31
2022/10/02 01:40:56;;;;;;;23.60;6.50;;;8.80;99.90;;;;;;5054059;28;20074;-31
2022/10/02 01:43:29;;;;;;;19.67;5.45;;;9.00;99.90;;;;;;5053341;28;20052;-31
2022/10/02 01:46:03;;;;;;;20.10;5.88;;;9.10;99.90;;;;;;5052586;28;20052;-31
2022/10/02 01:48:48;;;;;;;23.65;6.18;;;10.50;99.90;;;;;;5052442;28;20087;-31
2022/10/02 01:51:24;;;;;;;20.30;5.18;;;9.00;99.90;;;;;;5054019;28;20060;-31
2022/10/02 01:54:32;;;;;;;18.85;5.63;;;9.60;99.90;;;;;;5052863;28;20087;-31
2022/10/02 01:57:21;;;;;;;25.55;6.28;;;10.70;99.90;;;;;;5053154;28;20083;-31
2022/10/02 02:00:09;;;;;;;27.15;6.50;;;9.00;99.90;;;;;;5053563;28;20049;-31
2022/10/02 02:02:48;;;;;;;27.45;6.25;;;10.80;99.90;;;;;;5052367;28;20045;-31
2022/10/02 02:05:34;;;;;;;21.08;5.53;;;10.80;99.90;;;;;;5053244;28;20480;-31
2022/10/02 02:08:08;;;;;;;22.70;6.13;;;9.20;99.90;;;;;;5053201;28;20040;-31
2022/10/02 02:11:09;;;;;;;29.10;5.57;;;9.10;99.90;;;;;;5052493;28;20475;-32
2022/10/02 02:13:49;;;;;;;22.77;4.93;;;10.20;99.90;;;;;;5052766;28;20475;-31
2022/10/02 02:16:35;;;;;;;28.10;5.10;;;9.10;99.90;;;;;;5053950;28;20044;-31
2022/10/02 02:19:21;;;;;;;20.45;4.40;;;9.30;99.90;;;;;;5053165;28;20049;-33
2022/10/02 02:22:06;;;;;;;26.33;4.65;;;9.20;99.90;;;;;;5052949;28;20124;-32
2022/10/02 02:24:56;;;;;;;26.48;5.97;;;9.30;99.90;;;;;;5052775;28;20511;-32
2022/10/02 02:27:28;;;;;;;22.70;5.03;;;10.90;99.90;;;;;;5056653;28;20056;-31
2022/10/02 02:30:01;;;;;;;24.20;5.95;;;9.60;99.90;;;;;;5057299;28;20049;-32
2022/10/02 02:32:33;;;;;;;27.63;6.40;;;10.90;99.90;;;;;;5056668;28;20041;-31
2022/10/02 02:35:06;;;;;;;21.10;4.13;;;10.30;99.90;;;;;;5056619;28;20045;-31
2022/10/02 02:37:34;;;;;;;;;;;10.70;99.90;;;;;;5057418;28;20060;-31
2022/10/02 02:40:08;;;;;;;28.85;5.53;;;10.20;99.90;;;;;;5056495;28;19928;-31
2022/10/02 02:42:39;;;;;;;19.60;4.47;;;11.10;99.90;;;;;;5056401;28;20041;-31
2022/10/02 02:45:38;;;;;;;19.08;4.00;;;10.90;99.90;;;;;;5056726;28;20053;-32
2022/10/02 02:48:25;;;;;;;28.55;4.88;;;11.30;99.90;;;;;;5048838;28;20053;-31
2022/10/02 02:51:01;;;;;;;20.23;4.32;;;11.50;99.90;;;;;;5056376;28;20048;-31
2022/10/02 02:53:34;;;;;;;18.15;3.65;;;10.80;99.90;;;;;;5056587;28;20044;-31
2022/10/02 02:56:01;;;;;;;19.67;4.00;;;11.10;99.90;;;;;;5056234;28;20052;-31
2022/10/02 02:58:40;;;;;;;18.48;3.05;;;10.10;99.90;;;;;;5054941;28;20131;-32
2022/10/02 03:01:06;;;;;;;18.17;3.65;;;11.70;99.90;;;;;;5056678;28;20142;-31
2022/10/02 03:03:32;;;;;;;21.90;3.35;;;10.20;99.90;;;;;;5055934;28;20080;-31
2022/10/02 03:06:08;;;;;;;12.93;2.75;;;10.10;99.90;;;;;;5055873;28;20041;-32
2022/10/02 03:08:36;;;;;;;18.65;3.20;;;11.30;99.90;;;;;;5055040;28;20411;-31
2022/10/02 03:11:53;;;;;;;19.30;3.42;;;11.60;99.90;;;;;;5055559;28;20450;-31
2022/10/02 03:14:52;;;;;;;19.63;3.50;;;10.30;99.90;;;;;;5033172;28;20056;-32
2022/10/02 03:17:39;;;;;;;16.75;2.65;;;11.60;99.90;;;;;;5056347;28;20048;-32
2022/10/02 03:20:13;;;;;;;20.25;2.80;;;11.50;99.90;;;;;;5055427;28;20522;-33
2022/10/02 03:22:51;;;;;;;21.52;4.40;;;11.20;99.90;;;;;;5055609;28;20565;-32
2022/10/02 03:25:20;;;;;;;13.55;2.40;;;11.40;99.90;;;;;;5054708;28;20049;-32
2022/10/02 03:28:13;;;;;;;17.42;3.13;;;11.10;99.90;;;;;;5056125;28;20052;-32
2022/10/02 03:30:41;;;;;;;18.95;2.90;;;10.40;99.90;;;;;;5051488;28;20053;-32
2022/10/02 03:33:10;;;;;;;13.07;2.25;;;11.50;99.90;;;;;;5055191;28;20502;-33
2022/10/02 03:35:37;;;;;;;18.17;3.75;;;10.50;99.90;;;;;;5055447;28;20126;-32
2022/10/02 03:38:06;;;;;;;16.08;2.72;;;10.80;99.90;;;;;;5054553;28;20439;-32
2022/10/02 03:40:32;;;;;;;15.18;2.65;;;11.30;99.90;;;;;;5055909;28;20441;-32
2022/10/02 03:42:59;;;;;;;14.65;3.25;;;10.40;99.90;;;;;;5037565;28;20132;-33
2022/10/02 03:45:25;;;;;;;13.32;2.50;;;10.60;99.90;;;;;;5055251;28;20045;-33
2022/10/02 03:47:51;;;;;;;12.32;1.90;;;10.40;99.90;;;;;;5054549;28;20052;-32
2022/10/02 03:50:17;;;;;;;22.35;3.50;;;11.40;99.90;;;;;;5054001;28;20486;-32
2022/10/02 03:52:43;;;;;;;15.77;2.75;;;11.50;99.90;;;;;;5054346;28;20103;-33
2022/10/02 03:55:34;;;;;;;17.52;2.30;;;10.50;99.90;;;;;;5053923;28;20053;-33
2022/10/02 03:58:10;;;;;;;12.82;2.83;;;10.70;99.90;;;;;;5055090;28;20159;-32
2022/10/02 04:01:04;;;;;;;15.80;2.10;;;11.20;99.90;;;;;;5055564;28;20053;-32
2022/10/02 04:03:38;;;;;;;18.67;3.63;;;10.50;99.90;;;;;;5055369;28;20045;-32
2022/10/02 04:06:15;;;;;;;17.38;2.95;;;11.20;99.90;;;;;;5054337;28;20045;-32
2022/10/02 04:08:52;;;;;;;16.85;2.22;;;10.40;99.90;;;;;;5055096;28;20549;-32
2022/10/02 04:11:33;;;;;;;12.57;2.20;;;10.30;99.90;;;;;;5054636;28;20053;-32
2022/10/02 04:14:18;;;;;;;18.88;2.60;;;10.50;99.90;;;;;;5054749;28;20107;-34
2022/10/02 04:17:01;;;;;;;23.13;2.53;;;11.00;99.90;;;;;;5053538;28;20056;-32
2022/10/02 04:19:45;;;;;;;18.55;2.30;;;11.20;99.90;;;;;;5054510;28;20049;-32
2022/10/02 04:22:13;;;;;;;19.77;2.80;;;10.90;99.90;;;;;;5055083;28;20454;-33
2022/10/02 04:25:11;;;;;;;18.70;2.45;;;10.50;99.90;;;;;;5054492;28;20049;-33
2022/10/02 04:27:47;;;;;;;18.30;2.00;;;10.60;99.90;;;;;;5036800;28;20183;-32
2022/10/02 04:30:22;;;;;;;23.60;3.42;;;10.50;99.90;;;;;;5053221;28;20545;-33
2022/10/02 04:32:49;;;;;;;23.02;3.05;;;10.30;99.90;;;;;;5053950;28;20065;-32
2022/10/02 04:35:28;;;;;;;17.75;2.80;;;10.70;99.90;;;;;;5036756;28;20494;-34
2022/10/02 04:38:17;;;;;;;19.38;2.92;;;10.70;99.90;;;;;;5054340;28;20057;-32
2022/10/02 04:41:07;;;;;;;16.65;2.53;;;10.30;99.90;;;;;;5054236;28;20518;-34
2022/10/02 04:44:02;;;;;;;13.55;2.47;;;10.50;99.90;;;;;;5054107;28;20564;-33
2022/10/02 04:46:33;;;;;;;18.25;2.40;;;10.30;99.90;;;;;;5054401;28;20459;-32
2022/10/02 04:49:21;;;;;;;21.55;3.47;;;10.70;99.90;;;;;;5052721;28;20131;-32
2022/10/02 04:52:16;;;;;;;14.88;2.92;;;10.00;99.90;;;;;;5054343;28;20136;-33
2022/10/02 04:54:57;;;;;;;18.88;3.47;;;10.10;99.90;;;;;;5054000;28;20055;-32
2022/10/02 04:57:54;;;;;;;18.60;2.85;;;9.70;99.90;;;;;;5054539;28;20064;-34
2022/10/02 05:00:22;;;;;;;19.52;2.55;;;10.40;99.90;;;;;;5053903;28;20099;-33
2022/10/02 05:02:59;;;;;;;17.15;3.17;;;10.40;99.90;;;;;;5053999;28;20102;-34
2022/10/02 05:05:47;;;;;;;24.65;3.50;;;10.50;99.90;;;;;;5053452;28;20204;-33
2022/10/02 05:08:15;;;;;;;25.75;3.25;;;10.30;99.90;;;;;;5052601;28;20045;-33
2022/10/02 05:11:13;;;;;;;26.65;3.40;;;10.00;99.90;;;;;;5053739;28;20057;-33
2022/10/02 05:13:57;;;;;;;22.00;3.75;;;10.60;99.90;;;;;;5053175;28;20094;-33
2022/10/02 05:17:03;;;;;;;21.90;3.28;;;10.00;99.90;;;;;;5053683;28;20094;-33
2022/10/02 05:19:47;;;;;;;22.13;3.10;;;9.90;99.90;;;;;;5004568;28;20063;-33
2022/10/02 05:22:28;;;;;;;22.35;2.83;;;10.30;99.90;;;;;;5054186;28;20088;-33
2022/10/02 05:25:16;;;;;;;21.88;3.05;;;10.50;99.90;;;;;;5054261;28;20056;-34
2022/10/02 05:28:00;;;;;;;22.90;2.88;;;10.00;99.90;;;;;;5054195;28;20132;-33
2022/10/02 05:30:31;;;;;;;19.90;2.90;;;10.10;99.90;;;;;;5052614;28;20060;-33
2022/10/02 05:33:26;;;;;;;19.25;2.70;;;9.90;99.90;;;;;;5053562;28;20127;-33
2022/10/02 05:36:15;;;;;;;22.05;3.67;;;10.00;99.90;;;;;;5053493;28;20497;-34
2022/10/02 05:39:06;;;;;;;17.40;2.15;;;9.90;99.90;;;;;;5053843;28;20055;-32
2022/10/02 05:41:55;;;;;;;27.90;4.28;;;10.10;99.90;;;;;;5054313;28;20052;-33
2022/10/02 05:44:42;;;;;;;14.70;2.65;;;9.80;99.90;;;;;;5053518;28;20106;-34
2022/10/02 05:47:12;;;;;;;16.80;2.55;;;10.30;99.90;;;;;;5053349;28;20049;-33
2022/10/02 05:49:43;;;;;;;36.17;5.75;;;9.90;99.90;;;;;;5053975;28;20064;-34
2022/10/02 05:52:28;;;;;;;21.83;3.42;;;10.20;99.90;;;;;;5054212;28;20044;-33
2022/10/02 05:55:11;;;;;;;17.50;2.88;;;10.20;99.90;;;;;;5052381;28;20103;-33
2022/10/02 05:57:52;;;;;;;24.42;3.63;;;10.40;99.90;;;;;;5053643;28;20380;-33
2022/10/02 06:00:20;;;;;;;21.25;2.83;;;10.20;99.90;;;;;;5036512;28;20459;-34
2022/10/02 06:02:56;;;;;;;18.42;4.35;;;10.00;99.90;;;;;;5057676;28;20107;-33
2022/10/02 06:05:34;;;;;;;16.63;3.20;;;10.10;99.90;;;;;;5039592;28;20518;-33
2022/10/02 06:08:03;;;;;;;27.50;3.25;;;10.20;99.90;;;;;;5057112;28;20499;-34
2022/10/02 06:10:34;;;;;;;20.42;2.60;;;10.20;99.90;;;;;;5039355;28;20102;-33
2022/10/02 06:13:28;;;;;;;22.48;4.07;;;9.70;99.90;;;;;;5057111;28;20045;-33
2022/10/02 06:16:08;;;;;;;18.50;2.78;;;10.30;99.90;;;;;;5057043;28;20502;-34
2022/10/02 06:18:37;;;;;;;20.75;2.67;;;10.20;99.90;;;;;;5057810;28;20086;-33
2022/10/02 06:21:08;;;;;;;22.20;2.70;;;9.90;99.90;;;;;;5040425;28;20123;-34
2022/10/02 06:23:39;;;;;;;20.05;2.58;;;9.90;99.90;;;;;;5056449;28;20110;-34
2022/10/02 06:26:18;;;;;;;38.50;6.60;;;10.10;99.90;;;;;;5057152;28;20099;-33
2022/10/02 06:28:53;;;;;;;16.52;2.15;;;10.00;99.90;;;;;;5055737;28;20402;-34
2022/10/02 06:31:29;;;;;;;20.48;3.03;;;10.30;99.90;;;;;;5057257;28;20052;-33
2022/10/02 06:33:55;;;;;;;23.10;2.58;;;10.50;99.90;;;;;;5056696;28;20041;-34
2022/10/02 06:36:36;;;;;;;20.15;3.90;;;10.50;99.90;;;;;;5056490;28;20381;-33
2022/10/02 06:39:20;;;;;;;19.63;3.55;;;10.40;99.90;;;;;;5056392;28;20369;-35
2022/10/02 06:42:11;;;;;;;22.35;3.00;;;10.60;99.90;;;;;;5057069;28;20053;-34
2022/10/02 06:44:59;;;;;;;20.92;3.08;;;10.70;99.90;;;;;;5056317;28;20136;-36
2022/10/02 06:47:53;;;;;;;24.17;3.30;;;11.00;99.90;;;;;;5056980;28;20446;-35
2022/10/02 06:50:23;;;;;;;;;;;11.10;99.90;;;;;;5057613;28;20131;-34
2022/10/02 06:52:53;;;;;;;18.50;2.90;;;11.30;99.90;;;;;;5056272;28;19921;-36
2022/10/02 06:55:30;;;;;;;18.67;2.85;;;11.40;99.90;;;;;;5038589;28;20094;-36
2022/10/02 06:58:13;;;;;;;15.77;2.55;;;11.50;99.90;;;;;;5056193;28;20060;-37
2022/10/02 07:01:11;;;;;;;14.93;2.67;;;11.50;99.90;;;;;;5056777;28;20048;-38
2022/10/02 07:03:46;;;;;;;18.13;3.03;;;11.60;99.90;;;;;;5056577;28;20061;-36
2022/10/02 07:06:27;;;;;;;24.15;3.13;;;11.70;99.90;;;;;;5056006;28;20498;-37
2022/10/02 07:09:11;;;;;;;24.63;3.67;;;11.60;99.90;;;;;;5055303;28;20059;-38
2022/10/02 07:12:19;;;;;;;22.20;2.60;;;11.50;99.90;;;;;;5055234;28;20040;-37
2022/10/02 07:15:03;;;;;;;22.10;3.60;;;11.40;99.90;;;;;;5035470;28;20064;-38
2022/10/02 07:17:49;;;;;;;19.48;2.60;;;11.50;99.90;;;;;;5055899;28;20136;-38
2022/10/02 07:20:38;;;;;;;13.77;2.50;;;11.40;99.90;;;;;;5056402;28;20364;-36
2022/10/02 07:23:19;;;;;;;13.95;2.33;;;11.50;99.90;;;;;;5055148;28;20087;-38
2022/10/02 07:25:54;;;;;;;18.67;3.55;;;11.70;99.90;;;;;;5055658;28;20044;-38
2022/10/02 07:29:08;;;;;;;20.45;2.92;;;11.70;99.90;;;;;;5056477;28;20044;-39
2022/10/02 07:31:51;;;;;;;15.43;3.07;;;12.00;99.90;;;;;;5046669;28;20369;-38
2022/10/02 07:34:26;;;;;;;;;;;12.20;99.90;;;;;;5055825;28;20299;-38
2022/10/02 07:37:23;;;;;;;13.80;1.92;;;12.20;99.90;;;;;;5055816;28;20270;-35
2022/10/02 07:39:54;;;;;;;22.20;2.88;;;12.10;99.90;;;;;;5055364;28;20060;-38
2022/10/02 07:42:31;;;;;;;19.85;2.00;;;12.10;99.90;;;;;;5055241;28;20497;-39
2022/10/02 07:45:05;;;;;;;17.38;2.53;;;12.20;99.90;;;;;;5055746;28;20045;-38
2022/10/02 07:48:06;;;;;;;12.55;1.95;;;12.20;99.90;;;;;;5055907;28;20364;-38
2022/10/02 07:50:38;;;;;;;13.32;2.30;;;12.10;99.90;;;;;;5055860;28;20427;-39
2022/10/02 07:53:37;;;;;;;15.57;1.85;;;12.00;99.90;;;;;;5054098;28;20048;-38
2022/10/02 07:56:06;;;;;;;16.58;2.33;;;12.30;99.90;;;;;;5053911;28;20056;-40
2022/10/02 07:59:03;;;;;;;11.10;1.90;;;12.10;99.90;;;;;;5054344;28;20045;-40
2022/10/02 08:01:34;;;;;;;13.40;1.30;;;11.90;99.90;;;;;;5048493;28;20110;-40
2022/10/02 08:04:07;;;;;;;14.98;2.75;;;12.00;99.90;;;;;;5054934;28;20045;-40
2022/10/02 08:06:35;;;;;;;11.68;1.98;;;12.10;99.90;;;;;;5054926;28;20088;-41
2022/10/02 08:09:05;;;;;;;10.32;2.15;;;12.40;99.90;;;;;;5053676;28;20048;-41
2022/10/02 08:11:52;;;;;;;12.55;2.05;;;12.40;99.90;;;;;;5055345;28;20044;-41
2022/10/02 08:14:36;;;;;;;11.93;1.98;;;12.30;99.90;;;;;;5053875;28;20041;-41
2022/10/02 08:17:28;;;;;;;16.58;2.58;;;12.20;99.90;;;;;;5054063;28;20048;-41
2022/10/02 08:20:01;;;;;;;9.77;1.85;;;12.30;99.90;;;;;;5026909;28;20059;-41
2022/10/02 08:22:37;;;;;;;16.40;2.92;;;12.20;99.90;;;;;;5054802;28;20084;-42
2022/10/02 08:25:24;;;;;;;10.38;2.25;;;12.10;99.90;;;;;;5054728;28;20080;-41
2022/10/02 08:28:09;;;;;;;11.30;2.33;;;12.00;99.90;;;;;;5053835;28;20057;-40
2022/10/02 08:30:36;;;;;;;9.18;1.55;;;12.00;99.90;;;;;;5054323;28;20131;-41
2022/10/02 08:33:10;;;;;;;16.58;2.15;;;11.90;99.90;;;;;;5054361;28;20502;-40
2022/10/02 08:36:08;;;;;;;17.73;2.20;;;12.20;99.90;;;;;;5054048;28;20519;-40
2022/10/02 08:38:50;;;;;;;11.65;2.10;;;12.10;99.90;;;;;;5051851;28;20057;-41
2022/10/02 08:41:15;;;;;;;12.73;1.98;;;12.30;99.90;;;;;;5054296;28;20049;-40
2022/10/02 08:43:47;;;;;;;9.55;1.73;;;12.00;99.90;;;;;;5054118;28;20056;-40
2022/10/02 08:46:34;;;;;;;12.35;1.75;;;12.00;99.90;;;;;;5054112;28;20570;-40
2022/10/02 08:49:16;;;;;;;9.15;1.58;;;11.90;99.90;;;;;;5052957;28;20049;-40
2022/10/02 08:52:24;;;;;;;8.85;2.03;;;12.30;99.90;;;;;;5052951;28;20443;-41
2022/10/02 08:54:53;;;;;;;9.48;1.55;;;12.20;99.90;;;;;;5054114;28;20052;-40
2022/10/02 08:57:32;;;;;;;9.50;1.98;;;12.40;99.90;;;;;;5052985;28;20096;-41
2022/10/02 09:00:22;;;;;;;10.27;1.75;;;12.50;99.90;;;;;;5053994;28;20096;-41
2022/10/02 09:02:54;;;;;;;10.25;1.98;;;12.60;99.90;;;;;;5053847;28;20049;-42
2022/10/02 09:05:55;;;;;;;12.82;2.95;;;12.70;99.90;;;;;;5054491;28;20052;-42
2022/10/02 09:08:25;;;;;;;13.98;1.90;;;;;;;;;;5042680;28;20061;-42
2022/10/02 09:11:00;;;;;;;10.48;2.60;;;;;;;;;;5052622;28;20071;-42
2022/10/02 09:13:51;;;;;;;18.00;3.58;;;13.50;99.90;;;;;;5053749;28;20041;-41
2022/10/02 09:16:31;;;;;;;12.70;2.45;;;13.90;99.90;;;;;;5053774;28;20052;-43
2022/10/02 09:19:02;;;;;;;14.45;2.47;;;;;;;;;;5054571;28;20395;-43
2022/10/02 09:21:28;;;;;;;16.13;2.85;;;;;;;;;;5053674;28;20049;-44
2022/10/02 09:24:02;;;;;;;13.40;2.17;;;14.90;99.90;;;;;;5053545;28;20045;-43
2022/10/02 09:26:38;;;;;;;13.07;2.20;;;15.20;99.90;;;;;;5053577;28;20049;-43
2022/10/02 09:29:29;;;;;;;13.02;2.55;;;15.20;99.90;;;;;;5054182;28;20104;-43
2022/10/02 09:32:33;;;;;;;13.23;2.22;;;15.00;99.90;;;;;;5053514;28;20041;-43
2022/10/02 09:35:10;;;;;;;;;;;15.10;99.90;;;;;;5055952;28;20049;-43
2022/10/02 09:37:43;;;;;;;13.45;3.03;;;;;;;;;;5058492;28;19924;-44
2022/10/02 09:40:33;;;;;;;11.53;2.43;;;15.50;99.90;;;;;;5056429;28;20174;-44
2022/10/02 09:43:23;;;;;;;17.85;3.17;;;15.70;99.90;;;;;;5057577;28;20045;-43
2022/10/02 09:45:52;;;;;;;15.35;4.05;;;;;;;;;;5057566;28;20041;-43
2022/10/02 09:48:33;;;;;;;20.15;3.00;;;;;;;;;;5057489;28;20045;-45
2022/10/02 09:50:59;;;;;;;14.55;2.40;;;;;;;;;;5057452;28;20045;-44
2022/10/02 09:53:43;;;;;;;16.40;2.78;;;;;;;;;;5057305;28;20048;-43
2022/10/02 09:56:28;;;;;;;15.90;2.42;;;;;;;;;;5056468;28;20040;-43
2022/10/02 09:59:02;;;;;;;8.38;1.92;;;;;;;;;;5057308;28;20051;-43
2022/10/02 10:01:35;;;;;;;17.42;2.90;;;;;;;;;;5057260;28;20045;-42
2022/10/02 10:04:11;;;;;;;12.80;2.95;;;;;;;;;;5057149;28;20128;-43
2022/10/02 10:06:40;;;;;;;15.25;2.90;;;;;;;;;;5058017;28;20049;-43
2022/10/02 10:09:16;;;;;;;14.10;2.78;;;;;;;;;;5057637;28;20052;-44
2022/10/02 10:12:01;;;;;;;19.73;3.47;;;;;;;;;;5057130;28;20055;-43
2022/10/02 10:14:48;;;;;;;17.10;2.95;;;;;;;;;;5057024;28;20127;-43
2022/10/02 10:17:18;;;;;;;16.98;2.85;;;;;;;;;;5057576;28;20391;-43
2022/10/02 10:19:59;;;;;;;16.75;2.88;;;;;;;;;;5056908;28;20055;-43
2022/10/02 10:22:44;;;;;;;14.43;2.25;;;;;;;;;;5056442;28;20044;-43
2022/10/02 10:25:18;;;;;;;12.88;2.92;;;;;;;;;;5056843;28;20380;-42
2022/10/02 10:28:07;;;;;;;18.15;2.60;;;;;;;;;;5056105;28;20084;-43
2022/10/02 10:30:36;;;;;;;18.98;3.83;;;;;;;;;;5037627;28;20136;-43
2022/10/02 10:33:34;;;;;;;13.70;2.30;;;;;;;;;;5056712;28;20491;-43
2022/10/02 10:39:07;;;;;;;11.82;2.00;;;;;;;;;;5055613;28;20048;-42
2022/10/02 10:41:52;;;;;;;13.90;3.08;;;;;;;;;;5056198;28;20488;-43
2022/10/02 10:44:36;;;;;;;14.32;2.22;;;;;;;;;;5056433;28;20053;-43
2022/10/02 10:47:21;;;;;;;10.70;2.22;;;;;;;;;;5054761;28;20055;-43
2022/10/02 10:49:50;;;;;;;13.48;2.65;;;;;;;;;;5056413;28;20110;-42
2022/10/02 10:52:35;;;;;;;13.98;2.63;;;;;;;;;;5056189;28;20526;-43
2022/10/02 10:55:07;;;;;;;9.73;2.03;;;;;;;;;;5056203;28;20044;-42
2022/10/02 10:57:39;;;;;;;13.70;3.03;;;;;;;;;;5056270;28;20132;-43
2022/10/02 11:00:25;;;;;;;13.45;2.35;;;;;;;;;;5056220;28;20099;-43
2022/10/02 11:02:54;;;;;;;17.52;2.70;;;;;;;;;;5055014;28;20053;-44
2022/10/02 11:05:28;;;;;;;11.48;2.47;;;;;;;;;;5056086;28;20075;-42
2022/10/02 11:07:55;;;;;;;15.75;3.05;;;;;;;;;;5056674;28;20086;-43
2022/10/02 11:10:21;;;;;;;13.38;2.35;;;;;;;;;;5056844;28;20440;-44
2022/10/02 11:12:55;;;;;;;14.65;2.78;;;;;;;;;;5055907;28;20052;-43
2022/10/02 11:15:21;;;;;;;17.15;2.97;;;;;;;;;;5055912;28;20052;-43
2022/10/02 11:17:59;;;;;;;14.90;2.78;;;;;;;;;;5054723;28;20053;-42
2022/10/02 11:20:46;;;;;;;12.07;2.30;;;;;;;;;;5055839;28;20052;-43
2022/10/02 11:23:24;;;;;;;14.43;3.90;;;;;;;;;;5054517;28;20084;-43
2022/10/02 11:25:51;;;;;;;18.75;3.28;;;;;;;;;;5055986;28;20387;-42
2022/10/02 11:28:25;;;;;;;14.55;2.60;;;;;;;;;;5055643;28;20052;-42
2022/10/02 11:30:54;;;;;;;14.07;2.97;;;;;;;;;;5055606;28;20491;-43
2022/10/02 11:33:32;;;;;;;17.90;3.20;;;;;;;;;;5055560;28;20041;-42
2022/10/02 11:36:04;;;;;;;11.50;2.22;;;;;;;;;;5055523;28;20045;-42
2022/10/02 11:38:54;;;;;;;12.85;2.78;;;;;;;;;;5054369;28;20057;-42
2022/10/02 11:41:45;;;;;;;15.40;2.53;;;;;;;;;;5056023;28;20489;-43
2022/10/02 11:44:15;;;;;;;16.17;2.28;;;;;;;;;;5055883;28;20142;-42
2022/10/02 11:46:41;;;;;;;15.95;2.58;;;;;;;;;;5055314;28;20107;-42
2022/10/02 11:49:25;;;;;;;20.52;3.65;;;;;;;;;;5055209;28;20056;-43
2022/10/02 11:51:57;;;;;;;16.63;2.80;;;;;;;;;;5056038;28;20102;-42
2022/10/02 11:54:44;;;;;;;14.93;2.25;;;;;;;;;;5055023;28;20044;-42
2022/10/02 11:57:19;;;;;;;18.92;3.15;;;;;;;;;;5055022;28;20515;-42
2022/10/02 12:00:04;;;;;;;16.27;2.70;;;;;;;;;;5054720;28;20047;-42
2022/10/02 12:02:31;;;;;;;14.00;2.67;;;;;;;;;;5055240;28;20044;-42
2022/10/02 12:05:07;;;;;;;16.10;3.13;;;;;;;;;;5054983;28;20053;-42
2022/10/02 12:07:45;;;;;;;15.02;2.67;;;;;;;;;;5055718;28;20490;-42
2022/10/02 12:10:26;;;;;;;13.40;2.33;;;;;;;;;;5054874;28;20064;-42
2022/10/02 12:13:14;;;;;;;14.95;2.97;;;;;;;;;;5054742;28;20510;-42
2022/10/02 12:15:58;;;;;;;15.82;2.50;;;;;;;;;;5054698;28;20064;-42
2022/10/02 12:18:43;;;;;;;14.25;2.15;;;;;;;;;;5054242;28;20391;-43
2022/10/02 12:27:35;;;;;;;18.58;2.40;;;;;;;;;;5032299;28;20053;-42
2022/10/02 12:30:07;;;;;;;19.80;2.83;;;;;;;;;;5051012;28;20100;-42
2022/10/02 12:32:52;;;;;;;17.53;3.43;;;;;;;;;;5054704;28;20041;-42
2022/10/02 12:35:37;;;;;;;14.27;2.42;;;;;;;;;;5054334;28;20455;-42
2022/10/02 12:38:15;;;;;;;13.63;3.08;;;;;;;;;;5054810;28;20126;-43
2022/10/02 12:40:57;;;;;;;19.40;3.45;;;;;;;;;;5055149;28;20383;-42
2022/10/02 12:43:26;;;;;;;15.57;3.20;;;;;;;;;;5054385;28;20474;-43
2022/10/02 12:46:12;;;;;;;21.67;3.25;;;;;;;;;;5053033;28;20052;-42
2022/10/02 12:48:44;;;;;;;10.85;2.35;;;;;;;;;;5054130;28;20144;-41
2022/10/02 12:51:10;;;;;;;11.95;2.15;;;;;;;;;;5054157;28;20048;-42
2022/10/02 12:53:55;;;;;;;14.95;2.53;;;;;;;;;;5053995;28;20056;-42
2022/10/02 12:56:40;;;;;;;11.68;2.15;;;;;;;;;;5053982;28;20494;-42
2022/10/02 12:59:08;;;;;;;15.73;2.60;;;;;;;;;;5054251;28;20041;-42
2022/10/02 13:01:52;;;;;;;16.08;2.88;;;;;;;;;;5053943;28;20052;-42
2022/10/02 13:04:37;;;;;;;14.65;2.70;;;;;;;;;;5053931;28;20525;-42
2022/10/02 13:07:04;;;;;;;10.88;2.65;;;;;;;;;;5052890;28;20048;-42
2022/10/02 13:09:48;;;;;;;15.50;2.88;;;;;;;;;;5053544;28;20049;-42
2022/10/02 13:12:33;;;;;;;15.77;3.22;;;;;;;;;;5052640;28;20045;-42
2022/10/02 13:15:06;;;;;;;18.13;4.07;;;;;;;;;;5053825;28;20596;-42
2022/10/02 13:17:32;;;;;;;15.20;4.13;;;;;;;;;;5053620;28;20052;-42
2022/10/02 13:20:09;;;;;;;13.98;2.38;;;;;;;;;;5053292;28;20055;-41
2022/10/02 13:22:35;;;;;;;11.95;3.05;;;;;;;;;;5054496;28;20041;-42
2022/10/02 13:25:18;;;;;;;18.58;3.55;;;;;;;;;;5053667;28;20088;-41
2022/10/02 13:27:48;;;;;;;17.80;4.07;;;;;;;;;;5054484;28;20052;-42
2022/10/02 13:30:16;;;;;;;12.13;2.72;;;;;;;;;;5053650;28;20053;-42
2022/10/02 13:33:04;;;;;;;18.20;3.05;;;;;;;;;;5053876;28;20045;-41
2022/10/02 13:35:38;;;;;;;17.13;3.15;;;;;;;;;;5053239;28;20570;-42
2022/10/02 13:38:23;;;;;;;14.15;3.20;;;;;;;;;;5053895;28;20052;-42
2022/10/02 13:41:12;;;;;;;11.85;2.38;;;;;;;;;;5053497;28;20045;-42
2022/10/02 13:43:44;;;;;;;11.75;2.17;;;;;;;;;;5052553;28;20041;-41
2022/10/02 13:46:17;;;;;;;14.70;2.40;;;;;;;;;;5053479;28;20041;-41
2022/10/02 13:49:02;;;;;;;15.05;2.45;;;;;;;;;;5053177;28;20494;-41
2022/10/02 13:51:54;;;;;;;17.42;3.58;;;;;;;;;;5053319;28;20049;-42
2022/10/02 13:54:20;;;;;;;17.73;3.90;;;;;;;;;;5050894;28;20060;-41
2022/10/02 13:57:07;;;;;;;17.25;4.28;;;;;;;;;;5053302;28;20041;-41
2022/10/02 13:59:59;;;;;;;21.67;3.78;;;;;;;;;;5053286;28;20518;-41
2022/10/02 14:02:42;;;;;;;16.15;2.70;;;;;;;;;;5037319;28;20107;-41
2022/10/02 14:05:15;;;;;;;14.00;2.72;;;;;;;;;;5053295;28;20049;-41
2022/10/02 14:07:41;;;;;;;24.02;3.03;;;;;;;;;;5053750;28;20061;-40
2022/10/02 14:10:14;;;;;;;20.38;2.75;;;;;;;;;;5052468;28;20052;-40
2022/10/02 14:12:40;;;;;;;;;;;;;;;;;;5020555;28;20124;-40
2022/10/02 14:15:06;;;;;;;15.75;2.85;;;;;;;;;;5053120;28;20013;-40
2022/10/02 14:17:47;;;;;;;16.63;3.15;;;;;;;;;;5053103;28;20037;-40
2022/10/02 14:20:16;;;;;;;20.33;3.08;;;;;;;;;;5053666;28;20049;-38
2022/10/02 14:22:58;;;;;;;18.38;3.75;;;;;;;;;;5054209;28;20049;-39
2022/10/02 14:25:30;;;;;;;12.70;2.40;;;;;;;;;;5056592;28;20483;-39
2022/10/02 14:28:02;;;;;;;17.75;3.28;;;;;;;;;;5056842;28;20128;-38